createdAt,value
2018-09-02T00:02:01.671Z,12.00
2018-09-02T00:04:30.923Z,12.00
2018-09-02T00:07:00.312Z,11.90
2018-09-02T00:09:29.629Z,11.90
2018-09-02T00:11:58.956Z,11.80
2018-09-02T00:14:28.235Z,11.80
2018-09-02T00:16:57.555Z,11.90
2018-09-02T00:19:26.804Z,11.90
2018-09-02T00:21:56.103Z,12.00
2018-09-02T00:24:25.383Z,12.00
2018-09-02T00:26:54.690Z,12.00
2018-09-02T00:29:24.028Z,12.00
2018-09-02T00:31:53.364Z,12.10
2018-09-02T00:34:22.647Z,12.10
2018-09-02T00:36:52.147Z,12.10
2018-09-02T00:39:21.407Z,12.20
2018-09-02T00:41:50.710Z,12.20
2018-09-02T00:44:20.002Z,12.20
2018-09-02T00:46:49.324Z,12.30
2018-09-02T00:49:18.617Z,12.20
2018-09-02T00:51:47.999Z,12.30
2018-09-02T00:54:17.542Z,12.20
2018-09-02T00:56:46.990Z,12.20
2018-09-02T00:59:16.314Z,12.20
2018-09-02T01:01:45.729Z,12.20
2018-09-02T01:04:15.003Z,12.10
2018-09-02T01:06:44.278Z,12.10
2018-09-02T01:09:13.579Z,12.10
2018-09-02T01:11:42.894Z,12.10
2018-09-02T01:14:12.172Z,12.10
2018-09-02T01:16:41.493Z,12.10
2018-09-02T01:19:10.800Z,12.10
2018-09-02T01:21:40.078Z,12.10
2018-09-02T01:24:09.366Z,12.10
2018-09-02T01:26:38.650Z,12.20
2018-09-02T01:29:07.947Z,12.10
2018-09-02T01:31:37.334Z,12.00
2018-09-02T01:34:06.930Z,12.00
2018-09-02T01:36:36.142Z,12.00
2018-09-02T01:39:06.262Z,12.00
2018-09-02T01:41:35.551Z,12.00
2018-09-02T01:44:04.899Z,11.90
2018-09-02T01:46:34.250Z,11.80
2018-09-02T01:49:03.553Z,11.90
2018-09-02T01:51:32.842Z,11.80
2018-09-02T01:54:02.144Z,11.80
2018-09-02T01:56:31.414Z,11.80
2018-09-02T01:59:00.822Z,11.70
2018-09-02T02:01:30.149Z,11.70
2018-09-02T02:03:59.478Z,11.70
2018-09-02T02:06:28.705Z,11.70
2018-09-02T02:08:58.039Z,11.70
2018-09-02T02:11:27.335Z,11.70
2018-09-02T02:13:56.707Z,11.60
2018-09-02T02:16:25.989Z,11.60
2018-09-02T02:18:55.299Z,11.60
2018-09-02T02:21:24.657Z,11.50
2018-09-02T02:23:54.031Z,11.50
2018-09-02T02:26:23.337Z,11.60
2018-09-02T02:28:52.606Z,11.50
2018-09-02T02:31:21.938Z,11.50
2018-09-02T02:33:51.299Z,11.50
2018-09-02T02:36:20.579Z,11.40
2018-09-02T02:38:49.902Z,11.40
2018-09-02T02:41:19.218Z,11.40
2018-09-02T02:43:48.559Z,11.50
2018-09-02T02:46:17.936Z,11.50
2018-09-02T02:48:47.283Z,11.50
2018-09-02T02:51:16.585Z,11.40
2018-09-02T02:53:45.891Z,11.40
2018-09-02T02:56:15.154Z,11.40
2018-09-02T02:58:44.538Z,11.40
2018-09-02T03:01:13.875Z,11.40
2018-09-02T03:03:43.176Z,11.40
2018-09-02T03:06:12.447Z,11.40
2018-09-02T03:08:41.815Z,11.30
2018-09-02T03:11:11.079Z,11.30
2018-09-02T03:13:40.582Z,11.30
2018-09-02T03:16:10.431Z,11.30
2018-09-02T03:18:40.258Z,11.20
2018-09-02T03:21:09.494Z,11.20
2018-09-02T03:23:38.774Z,11.20
2018-09-02T03:26:08.175Z,11.10
2018-09-02T03:28:37.435Z,11.10
2018-09-02T03:31:07.081Z,11.10
2018-09-02T03:33:36.337Z,11.00
2018-09-02T03:36:05.752Z,10.90
2018-09-02T03:38:35.040Z,10.90
2018-09-02T03:41:04.394Z,10.90
2018-09-02T03:43:33.674Z,10.90
2018-09-02T03:46:03.010Z,10.90
2018-09-02T03:48:32.315Z,10.90
2018-09-02T03:51:01.694Z,10.80
2018-09-02T03:53:30.997Z,10.80
2018-09-02T03:56:00.335Z,10.80
2018-09-02T03:58:29.652Z,10.70
2018-09-02T04:00:59.050Z,10.70
2018-09-02T04:03:28.486Z,10.70
2018-09-02T04:05:57.805Z,10.70
2018-09-02T04:08:27.086Z,10.70
2018-09-02T04:10:56.415Z,10.70
2018-09-02T04:13:25.679Z,10.60
2018-09-02T04:15:54.958Z,10.70
2018-09-02T04:18:24.311Z,10.60
2018-09-02T04:20:53.578Z,10.60
2018-09-02T04:23:22.859Z,10.70
2018-09-02T04:25:52.132Z,10.70
2018-09-02T04:28:21.490Z,10.90
2018-09-02T04:30:50.706Z,11.10
2018-09-02T04:33:20.118Z,11.20
2018-09-02T04:35:49.413Z,11.30
2018-09-02T04:38:18.713Z,11.40
2018-09-02T04:40:48.042Z,11.60
2018-09-02T04:43:17.208Z,11.70
2018-09-02T04:45:46.550Z,11.80
2018-09-02T04:48:15.808Z,11.80
2018-09-02T04:50:45.080Z,11.90
2018-09-02T04:53:14.432Z,12.00
2018-09-02T04:55:43.729Z,12.10
2018-09-02T04:58:13.034Z,12.20
2018-09-02T05:00:42.376Z,12.20
2018-09-02T05:03:11.678Z,12.30
2018-09-02T05:05:41.059Z,12.40
2018-09-02T05:08:10.483Z,12.50
2018-09-02T05:10:39.826Z,12.50
2018-09-02T05:13:09.114Z,12.60
2018-09-02T05:15:38.435Z,12.60
2018-09-02T05:18:07.845Z,12.70
2018-09-02T05:20:37.153Z,12.70
2018-09-02T05:23:06.718Z,12.80
2018-09-02T05:25:35.966Z,12.80
2018-09-02T05:28:05.437Z,12.90
2018-09-02T05:30:34.824Z,12.90
2018-09-02T05:33:04.210Z,13.00
2018-09-02T05:35:33.553Z,13.00
2018-09-02T05:38:02.967Z,13.00
2018-09-02T05:40:32.313Z,13.10
2018-09-02T05:43:01.669Z,13.10
2018-09-02T05:45:30.950Z,13.20
2018-09-02T05:48:00.294Z,13.20
2018-09-02T05:50:29.557Z,13.30
2018-09-02T05:52:58.960Z,13.20
2018-09-02T05:55:28.248Z,13.30
2018-09-02T05:57:57.538Z,13.30
2018-09-02T06:00:26.873Z,13.30
2018-09-02T06:02:56.210Z,13.40
2018-09-02T06:05:26.573Z,13.40
2018-09-02T06:07:57.229Z,13.40
2018-09-02T06:10:26.688Z,13.40
2018-09-02T06:12:55.982Z,13.50
2018-09-02T06:15:25.287Z,13.50
2018-09-02T06:17:54.642Z,13.60
2018-09-02T06:20:23.952Z,13.60
2018-09-02T06:22:53.262Z,13.70
2018-09-02T06:25:22.556Z,13.70
2018-09-02T06:27:51.858Z,13.70
2018-09-02T06:30:21.167Z,13.80
2018-09-02T06:32:50.523Z,13.80
2018-09-02T06:35:19.823Z,13.90
2018-09-02T06:37:49.106Z,13.90
2018-09-02T06:40:18.405Z,13.90
2018-09-02T06:42:47.791Z,14.00
2018-09-02T06:45:17.118Z,14.10
2018-09-02T06:47:46.413Z,14.10
2018-09-02T06:50:15.718Z,14.20
2018-09-02T06:52:44.999Z,14.30
2018-09-02T06:55:14.330Z,14.30
2018-09-02T06:57:43.730Z,14.40
2018-09-02T07:00:13.064Z,14.40
2018-09-02T07:02:42.543Z,14.50
2018-09-02T07:05:11.827Z,14.70
2018-09-02T07:07:41.216Z,14.80
2018-09-02T07:10:10.588Z,15.00
2018-09-02T07:12:39.958Z,15.10
2018-09-02T07:15:09.371Z,15.30
2018-09-02T07:17:38.828Z,15.60
2018-09-02T07:20:08.329Z,15.90
2018-09-02T07:22:37.525Z,16.20
2018-09-02T07:25:06.846Z,16.40
2018-09-02T07:27:36.218Z,16.60
2018-09-02T07:30:05.577Z,16.70
2018-09-02T07:32:34.909Z,16.70
2018-09-02T07:35:04.358Z,16.70
2018-09-02T07:37:33.674Z,16.70
2018-09-02T07:40:03.119Z,16.80
2018-09-02T07:42:32.507Z,16.80
2018-09-02T07:45:01.937Z,16.90
2018-09-02T07:47:31.343Z,17.00
2018-09-02T07:50:00.707Z,17.00
2018-09-02T07:52:29.996Z,17.00
2018-09-02T07:54:59.312Z,17.00
2018-09-02T07:57:28.540Z,17.10
2018-09-02T07:59:57.893Z,17.20
2018-09-02T08:02:27.191Z,17.20
2018-09-02T08:04:56.517Z,17.10
2018-09-02T08:07:25.811Z,17.20
2018-09-02T08:09:55.311Z,17.20
2018-09-02T08:12:24.839Z,17.30
2018-09-02T08:14:54.106Z,17.20
2018-09-02T08:17:23.400Z,17.40
2018-09-02T08:19:52.805Z,17.50
2018-09-02T08:22:22.127Z,17.60
2018-09-02T08:24:51.470Z,17.70
2018-09-02T08:27:20.756Z,17.80
2018-09-02T08:29:50.047Z,18.00
2018-09-02T08:32:19.415Z,18.20
2018-09-02T08:34:48.850Z,18.20
2018-09-02T08:37:18.182Z,18.40
2018-09-02T08:39:47.492Z,18.50
2018-09-02T08:42:16.854Z,18.50
2018-09-02T08:44:46.186Z,18.50
2018-09-02T08:47:15.624Z,18.70
2018-09-02T08:49:44.883Z,18.90
2018-09-02T08:52:14.211Z,19.00
2018-09-02T08:54:43.475Z,19.00
2018-09-02T08:57:12.887Z,19.10
2018-09-02T08:59:42.209Z,19.20
2018-09-02T09:02:11.515Z,19.30
2018-09-02T09:04:40.819Z,19.40
2018-09-02T09:07:10.590Z,19.50
2018-09-02T09:09:40.534Z,19.60
2018-09-02T09:12:10.173Z,19.90
2018-09-02T09:14:39.555Z,19.90
2018-09-02T09:17:09.118Z,20.00
2018-09-02T09:19:38.542Z,20.00
2018-09-02T09:22:08.691Z,20.30
2018-09-02T09:24:38.121Z,20.50
2018-09-02T09:27:07.555Z,20.50
2018-09-02T09:29:36.935Z,20.50
2018-09-02T09:32:06.402Z,20.40
2018-09-02T09:34:35.734Z,20.30
2018-09-02T09:37:05.117Z,20.40
2018-09-02T09:39:53.512Z,20.20
2018-09-02T09:42:22.843Z,20.30
2018-09-02T09:44:52.111Z,20.30
2018-09-02T09:47:21.477Z,20.40
2018-09-02T09:49:50.955Z,20.50
2018-09-02T09:52:20.375Z,20.60
2018-09-02T09:54:49.643Z,20.80
2018-09-02T09:57:18.946Z,20.70
2018-09-02T09:59:48.210Z,20.70
2018-09-02T10:02:17.566Z,20.70
2018-09-02T10:04:46.830Z,20.90
2018-09-02T10:07:16.248Z,21.10
2018-09-02T10:09:45.495Z,21.00
2018-09-02T10:12:14.805Z,20.90
2018-09-02T10:14:44.150Z,20.90
2018-09-02T10:17:13.529Z,21.00
2018-09-02T10:19:43.225Z,20.90
2018-09-02T10:22:12.723Z,20.70
2018-09-02T10:24:41.930Z,20.60
2018-09-02T10:27:11.271Z,20.50
2018-09-02T10:29:40.518Z,20.70
2018-09-02T10:32:09.897Z,20.50
2018-09-02T10:34:39.168Z,20.60
2018-09-02T10:37:08.443Z,20.60
2018-09-02T10:39:37.770Z,20.70
2018-09-02T10:42:07.228Z,20.90
2018-09-02T10:44:36.565Z,21.00
2018-09-02T10:47:06.326Z,21.00
2018-09-02T10:49:35.731Z,20.90
2018-09-02T10:52:05.148Z,21.00
2018-09-02T10:54:34.594Z,21.20
2018-09-02T10:57:03.914Z,21.10
2018-09-02T10:59:33.309Z,21.10
2018-09-02T11:02:02.686Z,21.10
2018-09-02T11:04:31.934Z,21.20
2018-09-02T11:07:01.228Z,21.20
2018-09-02T11:09:30.515Z,21.20
2018-09-02T11:11:59.830Z,21.20
2018-09-02T11:14:29.102Z,21.30
2018-09-02T11:16:58.466Z,21.40
2018-09-02T11:19:27.827Z,21.40
2018-09-02T11:21:57.171Z,21.40
2018-09-02T11:24:26.648Z,21.30
2018-09-02T11:26:55.927Z,21.30
2018-09-02T11:29:25.333Z,21.40
2018-09-02T11:31:54.639Z,21.60
2018-09-02T11:34:27.556Z,21.70
2018-09-02T11:36:56.841Z,21.50
2018-09-02T11:39:26.065Z,21.30
2018-09-02T11:41:55.495Z,21.50
2018-09-02T11:44:24.770Z,21.70
2018-09-02T11:46:54.159Z,21.90
2018-09-02T11:49:23.439Z,22.00
2018-09-02T11:51:52.701Z,22.10
2018-09-02T11:54:22.040Z,22.20
2018-09-02T11:56:51.458Z,22.00
2018-09-02T11:59:20.775Z,21.90
2018-09-02T12:01:50.305Z,21.90
2018-09-02T12:04:19.696Z,21.60
2018-09-02T12:06:48.955Z,21.50
2018-09-02T12:09:18.334Z,21.70
2018-09-02T12:11:47.721Z,21.80
2018-09-02T12:14:17.016Z,21.80
2018-09-02T12:16:46.331Z,22.00
2018-09-02T12:19:15.754Z,21.80
2018-09-02T12:21:45.210Z,21.60
2018-09-02T12:24:14.497Z,21.40
2018-09-02T12:26:43.790Z,21.50
2018-09-02T12:29:13.085Z,21.50
2018-09-02T12:31:42.627Z,21.60
2018-09-02T12:34:11.966Z,21.40
2018-09-02T12:36:41.190Z,21.40
2018-09-02T12:39:10.829Z,21.30
2018-09-02T12:41:40.122Z,21.60
2018-09-02T12:44:09.410Z,21.90
2018-09-02T12:46:38.702Z,22.00
2018-09-02T12:49:07.995Z,21.80
2018-09-02T12:51:37.710Z,21.80
2018-09-02T12:54:07.046Z,21.70
2018-09-02T12:56:36.408Z,21.50
2018-09-02T12:59:05.884Z,21.40
2018-09-02T13:01:35.231Z,21.40
2018-09-02T13:04:04.606Z,21.40
2018-09-02T13:06:34.031Z,21.30
2018-09-02T13:09:03.391Z,21.30
2018-09-02T13:11:32.691Z,21.40
2018-09-02T13:14:01.975Z,21.30
2018-09-02T13:16:31.340Z,21.20
2018-09-02T13:19:00.779Z,21.10
2018-09-02T13:21:30.150Z,20.90
2018-09-02T13:23:59.504Z,21.00
2018-09-02T13:26:29.766Z,20.90
2018-09-02T13:28:59.066Z,21.00
2018-09-02T13:31:28.346Z,21.20
2018-09-02T13:33:57.604Z,21.10
2018-09-02T13:36:27.018Z,21.00
2018-09-02T13:38:56.294Z,20.90
2018-09-02T13:41:25.600Z,20.80
2018-09-02T13:43:54.913Z,20.80
2018-09-02T13:46:24.419Z,20.40
2018-09-02T13:48:53.711Z,20.30
2018-09-02T13:51:23.054Z,20.30
2018-09-02T13:53:52.367Z,20.40
2018-09-02T13:56:21.781Z,20.50
2018-09-02T13:58:51.102Z,20.40
2018-09-02T14:01:20.470Z,20.40
2018-09-02T14:03:49.807Z,20.10
2018-09-02T14:06:19.106Z,19.90
2018-09-02T14:08:48.423Z,20.00
2018-09-02T14:11:17.791Z,20.10
2018-09-02T14:13:47.047Z,20.00
2018-09-02T14:16:16.316Z,19.90
2018-09-02T14:18:45.609Z,19.90
2018-09-02T14:21:14.924Z,19.80
2018-09-02T14:23:44.216Z,19.70
2018-09-02T14:26:13.607Z,19.70
2018-09-02T14:28:42.975Z,19.60
2018-09-02T14:31:12.263Z,19.60
2018-09-02T14:33:41.840Z,19.60
2018-09-02T14:36:11.475Z,19.60
2018-09-02T14:38:40.838Z,19.50
2018-09-02T14:41:10.450Z,19.40
2018-09-02T14:43:40.879Z,19.50
2018-09-02T14:46:11.357Z,19.50
2018-09-02T14:48:42.865Z,19.50
2018-09-02T14:51:16.181Z,19.40
2018-09-02T14:53:45.545Z,19.40
2018-09-02T14:56:14.851Z,19.30
2018-09-02T14:58:44.408Z,19.30
2018-09-02T15:01:13.726Z,19.20
2018-09-02T15:03:43.047Z,19.10
2018-09-02T15:06:12.452Z,19.00
2018-09-02T15:08:41.707Z,19.00
2018-09-02T15:11:10.887Z,18.90
2018-09-02T15:13:40.294Z,18.80
2018-09-02T15:16:09.998Z,18.80
2018-09-02T15:18:39.352Z,18.80
2018-09-02T15:21:08.673Z,18.80
2018-09-02T15:23:38.011Z,18.70
2018-09-02T15:26:07.314Z,18.70
2018-09-02T15:28:38.354Z,18.70
2018-09-02T15:31:07.761Z,18.80
2018-09-02T15:33:46.490Z,18.80
2018-09-02T15:36:15.807Z,18.80
2018-09-02T15:38:45.230Z,18.80
2018-09-02T15:41:14.545Z,18.80
2018-09-02T15:43:43.831Z,18.60
2018-09-02T15:46:13.294Z,18.70
2018-09-02T15:48:42.723Z,18.70
2018-09-02T15:51:12.025Z,18.70
2018-09-02T15:53:46.930Z,18.70
2018-09-02T15:56:16.214Z,18.70
2018-09-02T15:58:45.510Z,18.60
2018-09-02T16:01:18.022Z,18.70
2018-09-02T16:03:47.355Z,18.70
2018-09-02T16:06:16.725Z,18.80
2018-09-02T16:08:48.080Z,18.70
2018-09-02T16:11:19.604Z,18.80
2018-09-02T16:13:49.067Z,18.80
2018-09-02T16:16:18.413Z,18.70
2018-09-02T16:18:47.755Z,18.70
2018-09-02T16:21:23.428Z,18.60
2018-09-02T16:23:52.796Z,18.60
2018-09-02T16:26:22.235Z,18.50
2018-09-02T16:28:51.558Z,18.60
2018-09-02T16:31:20.802Z,18.50
2018-09-02T16:33:50.226Z,18.50
2018-09-02T16:36:19.581Z,18.60
2018-09-02T16:38:48.914Z,18.50
2018-09-02T16:41:18.289Z,18.60
2018-09-02T16:43:47.674Z,18.50
2018-09-02T16:46:16.898Z,18.60
2018-09-02T16:48:49.709Z,18.60
2018-09-02T16:51:19.147Z,18.60
2018-09-02T16:53:48.539Z,18.50
2018-09-02T16:56:17.910Z,18.50
2018-09-02T16:58:47.310Z,18.60
2018-09-02T17:01:16.598Z,18.50
2018-09-02T17:03:49.847Z,18.60
2018-09-02T17:06:19.363Z,18.60
2018-09-02T17:08:48.694Z,18.50
2018-09-02T17:11:17.976Z,18.60
2018-09-02T17:13:47.311Z,18.50
2018-09-02T17:16:30.379Z,18.50
2018-09-02T17:19:03.824Z,18.50
2018-09-02T17:21:33.330Z,18.50
2018-09-02T17:24:02.694Z,18.50
2018-09-02T17:26:31.996Z,18.50
2018-09-02T17:29:01.343Z,18.60
2018-09-02T17:31:30.708Z,18.50
2018-09-02T17:33:59.978Z,18.40
2018-09-02T17:36:29.231Z,18.40
2018-09-02T17:38:58.567Z,18.40
2018-09-02T17:41:27.867Z,18.30
2018-09-02T17:43:57.238Z,18.30
2018-09-02T17:46:26.583Z,18.20
2018-09-02T17:48:55.956Z,18.20
2018-09-02T17:51:25.323Z,18.20
2018-09-02T17:53:54.689Z,18.20
2018-09-02T17:56:24.013Z,18.20
2018-09-02T17:58:53.291Z,18.30
2018-09-02T18:01:23.075Z,18.30
2018-09-02T18:03:52.596Z,18.30
2018-09-02T18:06:21.927Z,18.30
2018-09-02T18:08:51.279Z,18.30
2018-09-02T18:11:20.675Z,18.30
2018-09-02T18:13:50.011Z,18.20
2018-09-02T18:16:19.414Z,18.20
2018-09-02T18:18:48.892Z,18.20
2018-09-02T18:21:18.182Z,18.20
2018-09-02T18:23:47.499Z,18.20
2018-09-02T18:26:16.919Z,18.20
2018-09-02T18:28:47.284Z,18.20
2018-09-02T18:31:16.815Z,18.20
2018-09-02T18:33:46.138Z,18.20
2018-09-02T18:36:15.491Z,18.20
2018-09-02T18:38:44.802Z,18.20
2018-09-02T18:41:14.108Z,18.20
2018-09-02T18:43:43.478Z,18.20
2018-09-02T18:46:20.599Z,18.20
2018-09-02T18:48:49.951Z,18.10
2018-09-02T18:51:19.351Z,18.10
2018-09-02T18:53:48.679Z,18.10
2018-09-02T18:56:18.066Z,18.00
2018-09-02T18:58:47.473Z,18.00
2018-09-02T19:01:16.690Z,18.00
2018-09-02T19:03:46.142Z,17.90
2018-09-02T19:06:15.380Z,17.90
2018-09-02T19:08:44.779Z,17.90
2018-09-02T19:11:23.565Z,17.80
2018-09-02T19:13:52.906Z,17.80
2018-09-02T19:16:22.233Z,17.80
2018-09-02T19:18:51.606Z,17.80
2018-09-02T19:21:20.983Z,17.70
2018-09-02T19:23:50.334Z,17.70
2018-09-02T19:26:19.636Z,17.60
2018-09-02T19:28:49.003Z,17.60
2018-09-02T19:31:18.292Z,17.60
2018-09-02T19:33:47.803Z,17.60
2018-09-02T19:36:17.212Z,17.60
2018-09-02T19:38:46.696Z,17.60
2018-09-02T19:41:16.071Z,17.50
2018-09-02T19:43:45.490Z,17.50
2018-09-02T19:46:14.782Z,17.60
2018-09-02T19:48:44.332Z,17.50
2018-09-02T19:51:13.726Z,17.50
2018-09-02T19:53:42.998Z,17.40
2018-09-02T19:56:12.313Z,17.40
2018-09-02T19:58:41.723Z,17.40
2018-09-02T20:01:11.044Z,17.40
2018-09-02T20:03:40.397Z,17.30
2018-09-02T20:06:09.759Z,17.30
2018-09-02T20:08:39.078Z,17.30
2018-09-02T20:11:08.416Z,17.30
2018-09-02T20:13:37.751Z,17.30
2018-09-02T20:16:07.217Z,17.30
2018-09-02T20:18:36.667Z,17.30
2018-09-02T20:21:05.986Z,17.30
2018-09-02T20:23:35.483Z,17.30
2018-09-02T20:26:04.804Z,17.30
2018-09-02T20:28:34.213Z,17.30
2018-09-02T20:31:03.639Z,17.30
2018-09-02T20:33:32.954Z,17.30
2018-09-02T20:36:02.484Z,17.30
2018-09-02T20:38:32.441Z,17.40
2018-09-02T20:41:01.776Z,17.40
2018-09-02T20:43:31.121Z,17.40
2018-09-02T20:46:00.588Z,17.30
2018-09-02T20:48:29.911Z,17.20
2018-09-02T20:50:59.308Z,17.20
2018-09-02T20:53:28.832Z,17.20
2018-09-02T20:55:58.137Z,17.10
2018-09-02T20:58:27.455Z,17.10
2018-09-02T21:00:56.842Z,17.20
2018-09-02T21:03:26.427Z,17.20
2018-09-02T21:05:56.055Z,17.20
2018-09-02T21:08:25.466Z,17.10
2018-09-02T21:10:54.638Z,17.10
2018-09-02T21:13:23.981Z,17.10
2018-09-02T21:15:53.355Z,17.10
2018-09-02T21:18:22.635Z,17.00
2018-09-02T21:20:51.983Z,17.00
2018-09-02T21:23:21.247Z,16.90
2018-09-02T21:25:50.571Z,16.90
2018-09-02T21:28:19.819Z,16.90
2018-09-02T21:30:49.110Z,16.90
2018-09-02T21:33:18.390Z,16.90
2018-09-02T21:35:47.641Z,16.90
2018-09-02T21:38:17.014Z,16.90
2018-09-02T21:40:46.390Z,16.90
2018-09-02T21:43:15.706Z,16.90
2018-09-02T21:45:45.149Z,16.90
2018-09-02T21:48:14.427Z,16.90
2018-09-02T21:50:43.857Z,16.90
2018-09-02T21:53:13.174Z,16.80
2018-09-02T21:55:42.550Z,16.90
2018-09-02T21:58:11.819Z,16.80
2018-09-02T22:00:42.224Z,16.90
2018-09-02T22:03:11.511Z,17.00
2018-09-02T22:05:40.917Z,16.90
2018-09-02T22:08:10.174Z,17.00
2018-09-02T22:10:39.515Z,17.00
2018-09-02T22:13:08.871Z,17.00
2018-09-02T22:15:38.204Z,17.00
2018-09-02T22:18:07.566Z,17.00
2018-09-02T22:20:36.862Z,17.00
2018-09-02T22:23:06.346Z,17.00
2018-09-02T22:25:35.665Z,17.00
2018-09-02T22:28:05.066Z,17.00
2018-09-02T22:30:34.377Z,16.90
2018-09-02T22:33:03.646Z,16.90
2018-09-02T22:35:33.077Z,16.90
2018-09-02T22:38:02.275Z,16.90
2018-09-02T22:40:31.615Z,16.90
2018-09-02T22:43:00.918Z,16.80
2018-09-02T22:45:30.237Z,16.70
2018-09-02T22:47:59.660Z,16.70
2018-09-02T22:50:29.022Z,16.70
2018-09-02T22:52:58.295Z,16.80
2018-09-02T22:55:27.674Z,16.70
2018-09-02T22:57:57.011Z,16.70
2018-09-02T23:00:26.363Z,16.70
2018-09-02T23:02:55.690Z,16.70
2018-09-02T23:05:25.028Z,16.70
2018-09-02T23:07:54.338Z,16.60
2018-09-02T23:10:23.666Z,16.50
2018-09-02T23:12:53.067Z,16.40
2018-09-02T23:15:22.312Z,16.40
2018-09-02T23:17:51.607Z,16.40
2018-09-02T23:20:21.012Z,16.40
2018-09-02T23:22:50.380Z,16.40
2018-09-02T23:25:19.794Z,16.40
2018-09-02T23:27:49.112Z,16.40
2018-09-02T23:30:18.396Z,16.40
2018-09-02T23:32:47.704Z,16.40
2018-09-02T23:35:16.998Z,16.40
2018-09-02T23:37:46.321Z,16.40
2018-09-02T23:40:15.631Z,16.40
2018-09-02T23:42:44.937Z,16.40
2018-09-02T23:45:14.260Z,16.40
2018-09-02T23:47:43.548Z,16.40
2018-09-02T23:50:12.887Z,16.40
2018-09-02T23:52:42.190Z,16.40
2018-09-02T23:55:11.495Z,16.40
2018-09-02T23:57:40.755Z,16.40
